Time;durP1;ratioP1;P1;durP2;ratioP2;P2;SDS_P1;SDS_P2;PMS_P1;PMS_P2;Temp;Humidity;BMP_temperature;BMP_pressure;BME280_temperature;BME280_humidity;BME280_pressure;Samples;Min_cycle;Max_cycle;Signal;HPM_P1;HPM_P2
2023/05/15 00:00:26;;;;;;;16.30;10.93;;;13.10;99.90;;;;;;5095453;28;20186;-50
2023/05/15 00:02:52;;;;;;;15.30;10.27;;;13.00;99.90;;;;;;5095441;28;20305;-51
2023/05/15 00:05:17;;;;;;;13.60;9.97;;;13.00;99.90;;;;;;5095352;28;20341;-52
2023/05/15 00:07:43;;;;;;;13.70;11.00;;;13.00;99.90;;;;;;5095246;28;20179;-52
2023/05/15 00:10:09;;;;;;;15.57;11.53;;;13.00;99.90;;;;;;5095152;28;20659;-52
2023/05/15 00:12:35;;;;;;;16.33;11.47;;;13.00;99.90;;;;;;5095123;28;20191;-51
2023/05/15 00:15:01;;;;;;;15.50;11.93;;;12.90;99.90;;;;;;5095604;28;20709;-51
2023/05/15 00:17:27;;;;;;;18.67;12.77;;;12.90;99.90;;;;;;5095441;28;20191;-51
2023/05/15 00:19:56;;;;;;;16.33;13.17;;;12.90;99.90;;;;;;5095126;28;20209;-49
2023/05/15 00:22:22;;;;;;;18.53;12.83;;;12.90;99.90;;;;;;5094948;28;20182;-50
2023/05/15 00:24:47;;;;;;;19.50;13.50;;;12.90;99.90;;;;;;5094834;28;20292;-51
2023/05/15 00:27:13;;;;;;;19.13;13.80;;;13.00;99.90;;;;;;5094858;28;20175;-52
2023/05/15 00:29:39;;;;;;;20.33;14.13;;;13.00;99.90;;;;;;5095251;28;20605;-50
2023/05/15 00:32:05;;;;;;;17.57;13.87;;;13.00;99.90;;;;;;5095012;28;20172;-51
2023/05/15 00:34:30;;;;;;;19.10;13.07;;;13.00;99.90;;;;;;5095530;28;20219;-51
2023/05/15 00:36:56;;;;;;;22.73;14.80;;;13.00;99.90;;;;;;5094942;28;20540;-50
2023/05/15 00:39:21;;;;;;;18.63;14.77;;;13.00;99.90;;;;;;5094781;28;20704;-50
2023/05/15 00:41:48;;;;;;;20.97;15.03;;;12.90;99.90;;;;;;5094986;28;20175;-52
2023/05/15 00:44:15;;;;;;;21.17;15.90;;;13.00;99.90;;;;;;5094404;28;20205;-51
2023/05/15 00:46:44;;;;;;;20.83;15.60;;;13.00;99.90;;;;;;5094305;28;20169;-51
2023/05/15 00:49:12;;;;;;;24.23;15.00;;;13.00;99.90;;;;;;5094540;28;20176;-50
2023/05/15 00:51:40;;;;;;;23.67;15.83;;;13.00;99.90;;;;;;5094638;28;20233;-50
2023/05/15 00:54:07;;;;;;;24.73;15.93;;;13.00;99.90;;;;;;5094392;28;20270;-50
2023/05/15 00:56:33;;;;;;;21.43;15.57;;;13.00;99.90;;;;;;5093132;28;20552;-50
2023/05/15 00:59:01;;;;;;;25.07;17.00;;;13.00;99.90;;;;;;5094552;28;20175;-52
2023/05/15 01:01:32;;;;;;;24.97;16.80;;;12.90;99.90;;;;;;5094261;28;20185;-50
2023/05/15 01:03:58;;;;;;;23.67;16.67;;;12.90;99.90;;;;;;5094618;28;20294;-50
2023/05/15 01:06:24;;;;;;;25.30;17.47;;;12.90;99.90;;;;;;5094337;28;20597;-48
2023/05/15 01:08:52;;;;;;;21.47;16.27;;;12.90;99.90;;;;;;5094498;28;20231;-49
2023/05/15 01:11:20;;;;;;;29.83;17.10;;;12.90;99.90;;;;;;5094128;28;20175;-49
2023/05/15 01:13:45;;;;;;;22.70;16.73;;;12.90;99.90;;;;;;5094247;28;20192;-51
2023/05/15 01:16:11;;;;;;;24.17;16.20;;;12.80;99.90;;;;;;5094350;28;20181;-50
2023/05/15 01:18:37;;;;;;;27.43;16.83;;;12.80;99.90;;;;;;5094183;28;20186;-50
2023/05/15 01:21:08;;;;;;;24.53;16.93;;;12.80;99.90;;;;;;5094115;28;20258;-51
2023/05/15 01:23:50;;;;;;;26.23;16.50;;;12.80;99.90;;;;;;5094118;28;20206;-49
2023/05/15 01:26:46;;;;;;;21.20;16.17;;;12.70;99.90;;;;;;5094081;28;20163;-50
2023/05/15 01:29:15;;;;;;;25.40;17.67;;;12.70;99.90;;;;;;5093885;28;20155;-51
2023/05/15 01:31:43;;;;;;;23.83;17.37;;;12.70;99.90;;;;;;5094348;28;20198;-51
2023/05/15 01:34:10;;;;;;;28.07;17.87;;;12.70;99.90;;;;;;5093994;28;20200;-52
2023/05/15 01:36:45;;;;;;;24.03;17.53;;;12.80;99.90;;;;;;5094021;28;20282;-49
2023/05/15 01:39:12;;;;;;;30.83;17.73;;;12.70;99.90;;;;;;5094087;28;20601;-49
2023/05/15 01:42:05;;;;;;;24.80;17.23;;;12.70;99.90;;;;;;5093704;28;20250;-47
2023/05/15 01:44:33;;;;;;;29.50;18.33;;;12.60;99.90;;;;;;5093891;28;20286;-46
2023/05/15 01:47:03;;;;;;;26.30;18.07;;;12.70;99.90;;;;;;5093572;28;20175;-50
2023/05/15 01:49:30;;;;;;;27.83;17.90;;;12.70;99.90;;;;;;5093795;28;20532;-50
2023/05/15 01:52:07;;;;;;;29.20;18.30;;;12.60;99.90;;;;;;5092269;28;20178;-48
2023/05/15 01:54:35;;;;;;;25.17;17.53;;;12.70;99.90;;;;;;5093876;28;20708;-44
2023/05/15 01:57:01;;;;;;;25.60;16.33;;;12.70;99.90;;;;;;5093062;28;20539;-45
2023/05/15 01:59:28;;;;;;;24.97;17.33;;;12.70;99.90;;;;;;5093653;28;20692;-46
2023/05/15 02:01:56;;;;;;;25.53;18.17;;;12.70;99.90;;;;;;5093471;28;20207;-45
2023/05/15 02:04:23;;;;;;;26.60;18.80;;;12.70;99.90;;;;;;5093430;28;20294;-45
2023/05/15 02:06:49;;;;;;;24.23;17.73;;;12.80;99.90;;;;;;5093455;28;20531;-45
2023/05/15 02:09:16;;;;;;;28.23;19.63;;;12.80;99.90;;;;;;5093389;28;20175;-45
2023/05/15 02:11:41;;;;;;;27.70;19.73;;;12.80;99.90;;;;;;5093663;28;20175;-45
2023/05/15 02:14:10;;;;;;;32.63;20.83;;;12.80;99.90;;;;;;5093565;28;20263;-44
2023/05/15 02:16:35;;;;;;;29.10;19.60;;;12.80;99.90;;;;;;5093424;28;20243;-46
2023/05/15 02:19:01;;;;;;;29.17;19.90;;;12.80;99.90;;;;;;5093629;28;20262;-50
2023/05/15 02:21:26;;;;;;;29.83;19.47;;;12.80;99.90;;;;;;5093268;28;20243;-51
2023/05/15 02:23:52;;;;;;;30.83;20.13;;;12.80;99.90;;;;;;5093096;28;20203;-49
2023/05/15 02:26:58;;;;;;;33.20;21.40;;;12.70;99.90;;;;;;5093333;28;20175;-51
2023/05/15 02:29:38;;;;;;;31.70;20.87;;;12.80;99.90;;;;;;5097248;28;20188;-45
2023/05/15 02:32:23;;;;;;;31.40;21.50;;;12.80;99.90;;;;;;5099908;28;20163;-46
2023/05/15 02:34:54;;;;;;;29.93;20.67;;;12.80;99.90;;;;;;5097247;28;20178;-44
2023/05/15 02:37:27;;;;;;;30.67;21.43;;;12.70;99.90;;;;;;5093931;28;20229;-46
2023/05/15 02:39:56;;;;;;;25.50;17.77;;;12.70;99.90;;;;;;5093343;28;20207;-45
2023/05/15 02:42:23;;;;;;;31.30;21.23;;;12.70;99.90;;;;;;5093187;28;20190;-42
2023/05/15 02:44:51;;;;;;;28.37;19.70;;;12.70;99.90;;;;;;5093182;28;20229;-45
2023/05/15 02:47:18;;;;;;;30.57;21.77;;;12.70;99.90;;;;;;5093010;28;20240;-46
2023/05/15 02:49:44;;;;;;;31.70;21.53;;;12.60;99.90;;;;;;5092967;28;20590;-43
2023/05/15 02:52:10;;;;;;;37.27;21.77;;;12.70;99.90;;;;;;5093052;28;20167;-41
2023/05/15 02:54:35;;;;;;;32.43;22.17;;;12.60;99.90;;;;;;5092836;28;20536;-43
2023/05/15 02:57:01;;;;;;;33.20;22.27;;;12.60;99.90;;;;;;5092845;28;20182;-44
2023/05/15 02:59:26;;;;;;;32.10;20.93;;;12.60;99.90;;;;;;5092842;28;20185;-46
2023/05/15 03:01:52;;;;;;;29.57;21.20;;;12.60;99.90;;;;;;5093147;28;20531;-45
2023/05/15 03:04:18;;;;;;;29.93;20.33;;;12.50;99.90;;;;;;5091407;28;20210;-46
2023/05/15 03:06:43;;;;;;;34.13;22.53;;;12.60;99.90;;;;;;5093016;28;20186;-42
2023/05/15 03:09:09;;;;;;;30.53;22.10;;;12.50;99.90;;;;;;5093824;28;20175;-41
2023/05/15 03:11:34;;;;;;;31.63;21.33;;;12.50;99.90;;;;;;5096685;28;20655;-44
2023/05/15 03:14:00;;;;;;;29.03;21.63;;;12.50;99.90;;;;;;5096234;28;20197;-45
2023/05/15 03:16:27;;;;;;;31.87;21.40;;;12.50;99.90;;;;;;5096510;28;20220;-43
2023/05/15 03:18:52;;;;;;;31.20;20.17;;;12.40;99.90;;;;;;5096286;28;20186;-45
2023/05/15 03:21:19;;;;;;;27.37;20.60;;;12.50;99.90;;;;;;5096142;28;20174;-44
2023/05/15 03:23:44;;;;;;;30.03;21.53;;;12.40;99.90;;;;;;5095975;28;20711;-43
2023/05/15 03:26:10;;;;;;;32.53;21.33;;;12.50;99.90;;;;;;5094901;28;20175;-46
2023/05/15 03:28:36;;;;;;;29.33;21.27;;;12.40;99.90;;;;;;5094728;28;20184;-43
2023/05/15 03:31:03;;;;;;;33.17;22.63;;;12.40;99.90;;;;;;5095946;28;20700;-43
2023/05/15 03:33:30;;;;;;;31.03;21.77;;;12.40;99.90;;;;;;5096125;28;20251;-44
2023/05/15 03:35:56;;;;;;;31.03;21.90;;;12.30;99.90;;;;;;5095994;28;20262;-45
2023/05/15 03:38:21;;;;;;;32.33;22.13;;;12.30;99.90;;;;;;5095835;28;20263;-44
2023/05/15 03:40:47;;;;;;;31.30;22.00;;;12.30;99.90;;;;;;5095693;28;20293;-44
2023/05/15 03:43:12;;;;;;;28.30;20.20;;;12.20;99.90;;;;;;5096238;28;20203;-45
2023/05/15 03:45:38;;;;;;;28.53;20.83;;;12.10;99.90;;;;;;5096457;28;20252;-46
2023/05/15 03:48:04;;;;;;;30.27;21.90;;;12.10;99.90;;;;;;5096593;28;20183;-47
2023/05/15 03:50:30;;;;;;;30.83;22.63;;;12.10;99.90;;;;;;5096405;28;20267;-45
2023/05/15 03:52:55;;;;;;;30.57;21.83;;;12.10;99.90;;;;;;5095876;28;20227;-46
2023/05/15 03:55:21;;;;;;;30.30;21.93;;;12.10;99.90;;;;;;5095895;28;20685;-46
2023/05/15 03:57:46;;;;;;;36.43;21.93;;;12.10;99.90;;;;;;5095557;28;20183;-50
2023/05/15 04:00:12;;;;;;;29.50;22.17;;;12.00;99.90;;;;;;5094594;28;20213;-52
2023/05/15 04:02:39;;;;;;;33.77;22.20;;;12.00;99.90;;;;;;5095518;28;20195;-49
2023/05/15 04:05:06;;;;;;;30.13;20.77;;;12.00;99.90;;;;;;5095968;28;20183;-50
2023/05/15 04:07:35;;;;;;;34.87;20.87;;;12.00;99.90;;;;;;5095366;28;20179;-49
2023/05/15 04:10:01;;;;;;;33.27;21.60;;;11.90;99.90;;;;;;5095459;28;20182;-44
2023/05/15 04:12:32;;;;;;;29.07;21.30;;;11.90;99.90;;;;;;5095436;28;20194;-44
2023/05/15 04:15:12;;;;;;;31.23;21.43;;;11.90;99.90;;;;;;5095176;28;20214;-46
2023/05/15 04:17:37;;;;;;;27.87;21.53;;;11.90;99.90;;;;;;5095418;28;20620;-43
2023/05/15 04:20:05;;;;;;;30.77;20.13;;;11.90;99.90;;;;;;5095270;28;20197;-44
2023/05/15 04:22:30;;;;;;;29.17;21.33;;;12.00;99.90;;;;;;5094442;28;20214;-45
2023/05/15 04:24:56;;;;;;;23.97;16.77;;;12.00;99.90;;;;;;5096177;28;20202;-45
2023/05/15 04:27:21;;;;;;;30.83;21.17;;;11.90;99.90;;;;;;5095872;28;20581;-46
2023/05/15 04:29:47;;;;;;;27.73;19.23;;;11.90;99.90;;;;;;5094957;28;20218;-51
2023/05/15 04:32:13;;;;;;;29.77;19.90;;;12.00;99.90;;;;;;5095011;28;20179;-51
2023/05/15 04:34:39;;;;;;;29.43;21.03;;;12.00;99.90;;;;;;5095399;28;20183;-53
2023/05/15 04:37:05;;;;;;;26.23;19.53;;;11.90;99.90;;;;;;5095120;28;20231;-50
2023/05/15 04:39:31;;;;;;;27.47;18.83;;;11.90;99.90;;;;;;5094524;28;20194;-49
2023/05/15 04:41:56;;;;;;;29.00;18.60;;;12.00;99.90;;;;;;5094678;28;20647;-46
2023/05/15 04:44:22;;;;;;;26.07;19.43;;;11.90;99.90;;;;;;5094944;28;20235;-44
2023/05/15 04:46:47;;;;;;;32.20;20.73;;;11.90;99.90;;;;;;5094830;28;20186;-51
2023/05/15 04:49:13;;;;;;;29.90;21.37;;;11.90;99.90;;;;;;5094709;28;20228;-45
2023/05/15 04:51:40;;;;;;;29.03;20.23;;;11.90;99.90;;;;;;5094697;28;20171;-43
2023/05/15 04:54:06;;;;;;;31.77;20.70;;;11.90;99.90;;;;;;5094239;28;20209;-46
2023/05/15 04:56:32;;;;;;;33.47;21.50;;;11.90;99.90;;;;;;5094422;28;20190;-49
2023/05/15 04:58:57;;;;;;;29.60;22.03;;;11.90;99.90;;;;;;5094496;28;20206;-49
2023/05/15 05:01:23;;;;;;;31.70;23.00;;;11.90;99.90;;;;;;5094222;28;20572;-51
2023/05/15 05:03:49;;;;;;;32.57;23.77;;;11.90;99.90;;;;;;5094163;28;20667;-50
2023/05/15 05:06:14;;;;;;;39.57;23.97;;;11.90;99.90;;;;;;5094331;28;20253;-50
2023/05/15 05:08:40;;;;;;;37.80;25.93;;;12.00;99.90;;;;;;5094594;28;20647;-50
2023/05/15 05:11:06;;;;;;;35.03;25.47;;;12.00;99.90;;;;;;5093042;28;20240;-49
2023/05/15 05:13:31;;;;;;;39.53;24.87;;;12.00;99.90;;;;;;5094303;28;20209;-50
2023/05/15 05:15:57;;;;;;;34.93;24.50;;;12.00;99.90;;;;;;5093056;28;20252;-47
2023/05/15 05:18:23;;;;;;;39.37;23.77;;;12.00;99.90;;;;;;5094097;28;20206;-50
2023/05/15 05:20:49;;;;;;;36.93;25.70;;;12.00;99.90;;;;;;5094313;28;20206;-50
2023/05/15 05:23:15;;;;;;;37.10;26.87;;;12.00;99.90;;;;;;5094130;28;20207;-50
2023/05/15 05:25:40;;;;;;;39.83;26.83;;;12.00;99.90;;;;;;5094375;28;20556;-50
2023/05/15 05:28:06;;;;;;;39.17;26.20;;;11.90;99.90;;;;;;5094186;28;20179;-48
2023/05/15 05:30:31;;;;;;;37.73;26.13;;;12.00;99.90;;;;;;5094145;28;20202;-50
2023/05/15 05:32:57;;;;;;;36.10;25.87;;;11.90;99.90;;;;;;5093182;28;20633;-50
2023/05/15 05:35:22;;;;;;;38.33;26.17;;;11.90;99.90;;;;;;5093871;28;20179;-49
2023/05/15 05:37:48;;;;;;;40.23;27.13;;;12.00;99.90;;;;;;5093638;28;20253;-50
2023/05/15 05:40:14;;;;;;;40.13;27.87;;;12.00;99.90;;;;;;5093873;28;20190;-52
2023/05/15 05:42:40;;;;;;;41.00;28.83;;;12.00;99.90;;;;;;5094409;28;20195;-49
2023/05/15 05:45:06;;;;;;;37.60;27.07;;;12.00;99.90;;;;;;5094056;28;20211;-51
2023/05/15 05:47:31;;;;;;;36.27;26.03;;;12.00;99.90;;;;;;5094384;28;20562;-51
2023/05/15 05:49:57;;;;;;;38.33;25.20;;;12.00;99.90;;;;;;5093868;28;20192;-52
2023/05/15 05:52:23;;;;;;;35.80;26.80;;;12.00;99.90;;;;;;5095866;28;20175;-50
2023/05/15 05:54:48;;;;;;;35.70;25.87;;;12.00;99.90;;;;;;5100483;28;20190;-48
2023/05/15 05:57:14;;;;;;;39.83;26.80;;;12.00;99.90;;;;;;5098901;28;20189;-49
2023/05/15 05:59:40;;;;;;;46.50;27.93;;;12.00;99.90;;;;;;5094108;28;20269;-50
2023/05/15 06:02:07;;;;;;;40.03;28.90;;;12.00;99.90;;;;;;5094458;28;20579;-51
2023/05/15 06:04:33;;;;;;;37.43;27.70;;;12.00;99.90;;;;;;5094230;28;20226;-50
2023/05/15 06:06:58;;;;;;;42.63;28.50;;;12.00;99.90;;;;;;5094236;28;20213;-50
2023/05/15 06:09:24;;;;;;;40.93;27.67;;;12.00;99.90;;;;;;5093893;28;20167;-49
2023/05/15 06:11:49;;;;;;;37.37;28.17;;;12.10;99.90;;;;;;5094244;28;20223;-51
2023/05/15 06:14:15;;;;;;;43.40;29.93;;;12.20;99.90;;;;;;5093791;28;20247;-51
2023/05/15 06:16:41;;;;;;;43.07;29.83;;;12.20;99.90;;;;;;5093927;28;20186;-51
2023/05/15 06:19:06;;;;;;;45.30;30.57;;;12.20;99.90;;;;;;5094203;28;20186;-50
2023/05/15 06:21:32;;;;;;;45.53;30.13;;;12.20;99.90;;;;;;5093842;28;20686;-50
2023/05/15 06:23:58;;;;;;;43.27;30.00;;;12.30;99.90;;;;;;5093681;28;20206;-49
2023/05/15 06:26:24;;;;;;;41.40;29.70;;;12.30;99.90;;;;;;5093963;28;20538;-50
2023/05/15 06:28:50;;;;;;;43.20;29.23;;;12.30;99.90;;;;;;5094065;28;20197;-49
2023/05/15 06:31:16;;;;;;;38.77;29.20;;;12.40;99.90;;;;;;5093767;28;20537;-51
2023/05/15 06:33:42;;;;;;;44.27;29.73;;;12.40;99.90;;;;;;5093503;28;20207;-50
2023/05/15 06:36:07;;;;;;;42.77;27.50;;;12.50;99.90;;;;;;5093378;28;20641;-50
2023/05/15 06:38:33;;;;;;;41.30;28.37;;;12.50;99.90;;;;;;5092955;28;20694;-51
2023/05/15 06:40:58;;;;;;;41.60;26.83;;;12.70;99.90;;;;;;5092898;28;20196;-51
2023/05/15 06:43:24;;;;;;;44.70;30.17;;;12.70;99.90;;;;;;5094349;28;20281;-51
2023/05/15 06:45:50;;;;;;;46.47;28.47;;;12.70;99.90;;;;;;5097150;28;20187;-50
2023/05/15 06:48:15;;;;;;;42.53;30.47;;;12.80;99.90;;;;;;5096857;28;20178;-51
2023/05/15 06:50:41;;;;;;;42.77;30.33;;;12.80;99.90;;;;;;5096716;28;20178;-51
2023/05/15 06:53:06;;;;;;;42.90;30.10;;;12.80;99.90;;;;;;5096896;28;20254;-51
2023/05/15 06:55:33;;;;;;;45.87;30.90;;;12.90;99.90;;;;;;5096676;28;20199;-51
2023/05/15 06:57:59;;;;;;;46.40;31.30;;;12.90;99.90;;;;;;5096862;28;20193;-51
2023/05/15 07:00:24;;;;;;;44.73;30.13;;;13.00;99.90;;;;;;5096621;28;20183;-50
2023/05/15 07:02:50;;;;;;;40.67;28.50;;;13.00;99.90;;;;;;5095282;28;20298;-50
2023/05/15 07:05:16;;;;;;;45.33;31.00;;;13.00;99.90;;;;;;5097189;28;20185;-51
2023/05/15 07:07:41;;;;;;;46.53;31.17;;;13.00;99.90;;;;;;5096554;28;20171;-51
2023/05/15 07:10:08;;;;;;;42.03;30.63;;;13.00;99.90;;;;;;5096691;28;20186;-51
2023/05/15 07:12:34;;;;;;;40.70;29.60;;;13.00;99.90;;;;;;5097034;28;20219;-52
2023/05/15 07:14:59;;;;;;;40.60;28.93;;;13.00;99.90;;;;;;5096929;28;20550;-51
2023/05/15 07:17:25;;;;;;;44.03;31.33;;;13.20;99.90;;;;;;5096644;28;20200;-51
2023/05/15 07:19:50;;;;;;;41.30;30.13;;;13.20;99.90;;;;;;5095144;28;20230;-51
2023/05/15 07:22:16;;;;;;;42.23;31.40;;;13.30;99.90;;;;;;5096154;28;20732;-52
2023/05/15 07:24:41;;;;;;;41.23;31.70;;;13.50;99.90;;;;;;5096114;28;20277;-51
2023/05/15 07:27:07;;;;;;;39.30;28.73;;;13.70;99.90;;;;;;5096670;28;20687;-51
2023/05/15 07:29:33;;;;;;;44.10;30.40;;;13.80;99.90;;;;;;5096606;28;20199;-50
2023/05/15 07:31:58;;;;;;;42.50;30.97;;;13.80;99.90;;;;;;5096080;28;20655;-49
2023/05/15 07:34:24;;;;;;;39.97;29.57;;;13.90;99.90;;;;;;5096179;28;20202;-50
2023/05/15 07:36:49;;;;;;;40.10;30.47;;;14.10;99.90;;;;;;5095127;28;20186;-50
2023/05/15 07:39:15;;;;;;;38.27;28.87;;;14.20;99.90;;;;;;5096235;28;20559;-51
2023/05/15 07:41:41;;;;;;;37.27;28.47;;;14.20;99.90;;;;;;5096290;28;20175;-50
2023/05/15 07:44:06;;;;;;;42.30;27.77;;;14.30;99.90;;;;;;5096340;28;20264;-51
2023/05/15 07:46:33;;;;;;;37.47;28.03;;;14.40;99.90;;;;;;5096464;28;20190;-52
2023/05/15 07:48:58;;;;;;;40.13;28.47;;;14.50;99.90;;;;;;5096335;28;20274;-50
2023/05/15 07:51:24;;;;;;;40.90;28.07;;;14.70;99.90;;;;;;5096203;28;20595;-50
2023/05/15 07:53:50;;;;;;;34.00;26.47;;;14.70;99.90;;;;;;5096116;28;20207;-52
2023/05/15 07:56:15;;;;;;;37.77;26.70;;;14.70;99.90;;;;;;5095152;28;20224;-51
2023/05/15 07:58:41;;;;;;;37.00;27.50;;;14.70;99.90;;;;;;5096045;28;20518;-51
2023/05/15 08:01:06;;;;;;;34.00;26.30;;;14.80;99.90;;;;;;5095879;28;20183;-50
2023/05/15 08:03:32;;;;;;;36.87;26.73;;;15.00;99.90;;;;;;5095304;28;20195;-51
2023/05/15 08:05:58;;;;;;;32.93;24.77;;;15.00;99.90;;;;;;5095551;28;20550;-51
2023/05/15 08:08:24;;;;;;;35.20;24.37;;;15.10;99.90;;;;;;5095626;28;20253;-50
2023/05/15 08:10:50;;;;;;;33.23;24.83;;;15.10;99.90;;;;;;5095467;28;20225;-51
2023/05/15 08:13:15;;;;;;;38.87;24.93;;;15.10;99.90;;;;;;5095133;28;20218;-50
2023/05/15 08:15:41;;;;;;;30.10;23.47;;;15.10;99.90;;;;;;5095412;28;20274;-50
2023/05/15 08:18:08;;;;;;;27.67;22.67;;;15.10;99.90;;;;;;5095309;28;20186;-50
2023/05/15 08:20:34;;;;;;;33.27;25.20;;;15.30;99.90;;;;;;5094999;28;20171;-51
2023/05/15 08:23:00;;;;;;;33.63;25.90;;;15.20;99.90;;;;;;5094895;28;20191;-52
2023/05/15 08:25:26;;;;;;;32.83;25.13;;;15.20;99.90;;;;;;5094922;28;20174;-51
2023/05/15 08:27:51;;;;;;;32.03;24.93;;;15.20;99.90;;;;;;5095138;28;20691;-51
2023/05/15 08:30:17;;;;;;;34.63;25.53;;;15.30;99.90;;;;;;5095109;28;20247;-51
2023/05/15 08:32:44;;;;;;;31.90;24.00;;;15.40;99.90;;;;;;5094971;28;20218;-50
2023/05/15 08:35:10;;;;;;;34.03;25.17;;;15.50;99.90;;;;;;5094976;28;20205;-51
2023/05/15 08:37:36;;;;;;;31.40;24.60;;;15.70;99.90;;;;;;5094591;28;20170;-51
2023/05/15 08:40:04;;;;;;;32.00;23.63;;;15.80;99.90;;;;;;5094548;28;20229;-51
2023/05/15 08:42:33;;;;;;;30.97;23.77;;;15.90;99.90;;;;;;5094738;28;20199;-51
2023/05/15 08:44:59;;;;;;;30.23;23.77;;;16.10;99.90;;;;;;5094191;28;20278;-51
2023/05/15 08:47:28;;;;;;;35.47;23.13;;;16.30;99.90;;;;;;5094505;28;20159;-50
2023/05/15 08:50:05;;;;;;;33.47;23.37;;;16.40;99.90;;;;;;5094501;28;20587;-51
2023/05/15 08:52:32;;;;;;;34.33;23.90;;;16.50;99.90;;;;;;5094371;28;20268;-50
2023/05/15 08:54:58;;;;;;;25.73;20.70;;;16.60;99.90;;;;;;5094359;28;20183;-51
2023/05/15 08:57:26;;;;;;;25.40;20.03;;;16.70;99.90;;;;;;5094563;28;20206;-49
2023/05/15 08:59:52;;;;;;;30.10;20.07;;;16.70;99.90;;;;;;5094502;28;20175;-50
2023/05/15 09:02:19;;;;;;;25.27;19.53;;;16.70;99.90;;;;;;5092933;28;20265;-53
2023/05/15 09:04:44;;;;;;;27.90;20.50;;;16.70;99.90;;;;;;5094101;28;20202;-51
2023/05/15 09:07:11;;;;;;;29.37;21.20;;;16.70;99.90;;;;;;5093467;28;20175;-51
2023/05/15 09:09:37;;;;;;;27.23;20.63;;;16.90;99.90;;;;;;5094209;28;20558;-50
2023/05/15 09:12:05;;;;;;;31.47;22.43;;;17.10;99.90;;;;;;5094087;28;20221;-50
2023/05/15 09:14:31;;;;;;;28.57;21.67;;;17.30;99.90;;;;;;5093965;28;20183;-51
2023/05/15 09:16:58;;;;;;;26.67;21.60;;;17.50;99.90;;;;;;5094111;28;20183;-51
2023/05/15 09:19:23;;;;;;;27.60;20.63;;;17.50;99.90;;;;;;5094236;28;20195;-51
2023/05/15 09:21:49;;;;;;;31.80;21.07;;;17.50;99.90;;;;;;5093942;28;20171;-51
2023/05/15 09:24:17;;;;;;;25.37;20.27;;;17.60;99.90;;;;;;5092509;28;20260;-52
2023/05/15 09:26:43;;;;;;;26.43;20.63;;;17.70;99.90;;;;;;5093783;28;20175;-50
2023/05/15 09:29:09;;;;;;;30.30;22.43;;;17.90;99.90;;;;;;5092587;28;20175;-51
2023/05/15 09:31:35;;;;;;;28.40;22.70;;;18.00;99.90;;;;;;5094194;28;20182;-46
2023/05/15 09:34:03;;;;;;;26.17;21.73;;;18.10;99.90;;;;;;5093794;28;20203;-47
2023/05/15 09:36:29;;;;;;;23.20;19.93;;;18.10;99.90;;;;;;5094039;28;20232;-47
2023/05/15 09:39:00;;;;;;;25.43;20.30;;;18.20;99.90;;;;;;5099133;28;20190;-48
2023/05/15 09:41:26;;;;;;;27.17;21.50;;;18.20;99.90;;;;;;5102517;28;20172;-47
2023/05/15 09:43:55;;;;;;;28.30;22.10;;;18.10;99.90;;;;;;5101164;28;20675;-46
2023/05/15 09:46:21;;;;;;;28.97;22.20;;;18.20;99.90;;;;;;5094501;28;20175;-47
2023/05/15 09:48:47;;;;;;;27.70;21.13;;;18.30;99.90;;;;;;5094130;28;20182;-48
2023/05/15 09:51:17;;;;;;;26.47;20.87;;;18.30;99.90;;;;;;5093860;28;20720;-48
2023/05/15 09:53:51;;;;;;;29.27;22.23;;;18.20;99.90;;;;;;5093668;28;20229;-49
2023/05/15 09:56:17;;;;;;;28.83;22.47;;;18.20;99.90;;;;;;5094127;28;20217;-48
2023/05/15 09:58:53;;;;;;;27.67;22.20;;;18.00;99.90;;;;;;5093473;28;20175;-48
2023/05/15 10:01:21;;;;;;;29.13;20.60;;;17.90;99.90;;;;;;5093747;28;20262;-47
2023/05/15 10:04:00;;;;;;;28.23;22.30;;;18.00;99.90;;;;;;5093284;28;20263;-48
2023/05/15 10:06:26;;;;;;;28.70;22.07;;;18.20;99.90;;;;;;5093527;28;20262;-48
2023/05/15 10:08:53;;;;;;;29.57;21.73;;;18.40;99.90;;;;;;5093406;28;20254;-48
2023/05/15 10:11:21;;;;;;;28.13;20.70;;;18.50;99.90;;;;;;5093589;28;20186;-48
2023/05/15 10:13:47;;;;;;;26.90;21.67;;;18.50;99.90;;;;;;5092042;28;20260;-48
2023/05/15 10:16:13;;;;;;;28.90;20.53;;;18.60;99.90;;;;;;5093281;28;20174;-47
2023/05/15 10:18:40;;;;;;;30.67;22.40;;;18.60;99.90;;;;;;5094802;28;20258;-47
2023/05/15 10:21:09;;;;;;;25.87;20.60;;;18.70;99.90;;;;;;5097654;28;20232;-48
2023/05/15 10:23:36;;;;;;;27.17;20.90;;;18.80;99.90;;;;;;5097169;28;20202;-49
2023/05/15 10:26:13;;;;;;;25.60;20.70;;;19.00;99.90;;;;;;5096183;28;20696;-47
2023/05/15 10:28:39;;;;;;;27.97;20.33;;;19.20;99.90;;;;;;5097247;28;20254;-46
2023/05/15 10:31:05;;;;;;;23.43;18.57;;;19.40;99.90;;;;;;5097634;28;20178;-49
2023/05/15 10:33:32;;;;;;;24.77;19.73;;;19.50;99.90;;;;;;5097425;28;20206;-47
2023/05/15 10:35:58;;;;;;;24.53;18.77;;;19.60;99.90;;;;;;5097201;28;20171;-47
2023/05/15 10:38:25;;;;;;;24.70;19.60;;;19.70;99.90;;;;;;5097548;28;20527;-47
2023/05/15 10:40:52;;;;;;;25.53;19.43;;;19.80;99.90;;;;;;5097244;28;20187;-50
2023/05/15 10:43:19;;;;;;;24.33;18.57;;;20.00;99.90;;;;;;5097172;28;20210;-52
2023/05/15 10:45:46;;;;;;;24.00;16.60;;;19.80;99.90;;;;;;5096961;28;20207;-50
2023/05/15 10:48:13;;;;;;;17.83;15.00;;;19.80;99.90;;;;;;5096897;28;20174;-51
2023/05/15 10:50:39;;;;;;;21.80;15.33;;;19.90;99.90;;;;;;5097135;28;20206;-50
2023/05/15 10:53:05;;;;;;;23.43;16.73;;;19.90;99.90;;;;;;5097044;28;20227;-51
2023/05/15 10:55:31;;;;;;;21.77;17.57;;;19.70;99.90;;;;;;5096772;28;20320;-51
2023/05/15 10:57:57;;;;;;;23.07;16.80;;;19.70;99.90;;;;;;5096860;28;20741;-52
2023/05/15 11:00:22;;;;;;;19.30;14.40;;;19.50;99.90;;;;;;5096979;28;20175;-52
2023/05/15 11:02:49;;;;;;;18.00;14.40;;;19.60;99.90;;;;;;5097023;28;20224;-51
2023/05/15 11:05:15;;;;;;;18.23;13.73;;;19.60;99.90;;;;;;5096754;28;20228;-51
2023/05/15 11:07:40;;;;;;;19.23;14.53;;;19.70;99.90;;;;;;5097635;28;20175;-52
2023/05/15 11:10:36;;;;;;;19.23;15.60;;;19.90;99.90;;;;;;5096668;28;20655;-52
2023/05/15 11:13:03;;;;;;;18.80;15.50;;;20.00;99.90;;;;;;5087669;28;20564;-52
2023/05/15 11:15:41;;;;;;;16.23;13.20;;;20.30;99.90;;;;;;5096642;28;20183;-49
2023/05/15 11:18:07;;;;;;;15.77;14.07;;;20.50;99.90;;;;;;5096452;28;20238;-48
2023/05/15 11:20:40;;;;;;;18.13;14.07;;;20.70;99.90;;;;;;5096513;28;20179;-48
2023/05/15 11:23:06;;;;;;;17.93;15.23;;;20.60;99.90;;;;;;5096069;28;20294;-50
2023/05/15 11:25:34;;;;;;;18.30;15.03;;;20.70;99.90;;;;;;5096180;28;20631;-49
2023/05/15 11:28:04;;;;;;;27.03;15.23;;;20.80;99.90;;;;;;5096033;28;20171;-49
2023/05/15 11:30:40;;;;;;;18.80;13.40;;;20.80;99.90;;;;;;5094995;28;20171;-49
2023/05/15 11:33:08;;;;;;;17.90;14.80;;;20.90;99.90;;;;;;5095950;28;20799;-48
2023/05/15 11:35:37;;;;;;;21.73;14.70;;;20.80;99.90;;;;;;5096218;28;20175;-49
2023/05/15 11:38:09;;;;;;;19.07;14.17;;;20.80;99.90;;;;;;5096206;28;20167;-49
2023/05/15 11:40:57;;;;;;;16.60;13.97;;;20.80;99.90;;;;;;5095741;28;20198;-49
2023/05/15 11:43:23;;;;;;;16.03;13.87;;;20.80;99.90;;;;;;5095980;28;20205;-48
2023/05/15 11:46:03;;;;;;;17.17;12.90;;;20.90;99.90;;;;;;5096089;28;20179;-48
2023/05/15 11:48:38;;;;;;;17.70;13.13;;;21.00;99.90;;;;;;5095990;28;20531;-50
2023/05/15 11:51:10;;;;;;;13.27;11.83;;;21.00;99.90;;;;;;5096200;28;20163;-48
2023/05/15 11:53:39;;;;;;;24.17;14.83;;;21.00;99.90;;;;;;5095895;28;20206;-49
2023/05/15 11:56:04;;;;;;;20.10;15.87;;;21.00;99.90;;;;;;5095629;28;20543;-49
2023/05/15 11:58:30;;;;;;;15.50;13.70;;;20.90;99.90;;;;;;5095836;28;20270;-50
2023/05/15 12:00:56;;;;;;;19.67;13.27;;;21.00;99.90;;;;;;5095830;28;20197;-49
2023/05/15 12:03:31;;;;;;;18.33;13.60;;;21.10;99.90;;;;;;5095644;28;20293;-49
2023/05/15 12:05:57;;;;;;;17.03;14.00;;;21.20;99.90;;;;;;5095752;28;20686;-49
2023/05/15 12:08:23;;;;;;;15.23;13.60;;;21.40;99.90;;;;;;5095525;28;20255;-48
2023/05/15 12:10:49;;;;;;;15.80;13.10;;;21.50;99.90;;;;;;5095560;28;20654;-49
2023/05/15 12:13:16;;;;;;;17.13;13.40;;;21.60;99.90;;;;;;5095465;28;20195;-49
2023/05/15 12:15:44;;;;;;;14.47;12.67;;;21.70;99.90;;;;;;5095295;28;20225;-49
2023/05/15 12:18:10;;;;;;;15.23;13.23;;;21.70;99.90;;;;;;5095194;28;20167;-49
2023/05/15 12:20:38;;;;;;;16.93;14.20;;;21.80;99.90;;;;;;5095372;28;20171;-49
2023/05/15 12:23:05;;;;;;;21.43;16.43;;;21.70;99.90;;;;;;5095251;28;20199;-50
2023/05/15 12:25:35;;;;;;;16.03;12.93;;;21.70;99.90;;;;;;5093810;28;20548;-48
2023/05/15 12:28:04;;;;;;;13.87;12.23;;;21.50;99.90;;;;;;5096540;28;20167;-49